sensor_id;sensor_type;location;lat;lon;timestamp;pressure;altitude;pressure_sealevel;temperature;humidity
41334;BME280;27078;46.428;6.256;2023-07-09T00:01:17;96865.88;;;21.98;84.84
41334;BME280;27078;46.428;6.256;2023-07-09T00:03:45;96872.84;;;21.86;86.42
41334;BME280;27078;46.428;6.256;2023-07-09T00:06:12;96874.03;;;21.77;88.57
41334;BME280;27078;46.428;6.256;2023-07-09T00:08:42;96872.75;;;21.72;88.33
41334;BME280;27078;46.428;6.256;2023-07-09T00:11:09;96878.50;;;21.69;88.84
41334;BME280;27078;46.428;6.256;2023-07-09T00:13:34;96877.25;;;21.65;89.71
41334;BME280;27078;46.428;6.256;2023-07-09T00:16:01;96870.88;;;21.73;91.06
41334;BME280;27078;46.428;6.256;2023-07-09T00:18:27;96870.69;;;21.74;91.68
41334;BME280;27078;46.428;6.256;2023-07-09T00:20:53;96875.91;;;21.54;95.89
41334;BME280;27078;46.428;6.256;2023-07-09T00:23:19;96877.31;;;21.29;96.93
41334;BME280;27078;46.428;6.256;2023-07-09T00:25:45;96881.09;;;21.34;94.74
41334;BME280;27078;46.428;6.256;2023-07-09T00:28:13;96880.66;;;21.31;95.83
41334;BME280;27078;46.428;6.256;2023-07-09T00:30:39;96881.25;;;21.26;95.82
41334;BME280;27078;46.428;6.256;2023-07-09T00:33:04;96872.94;;;21.21;96.76
41334;BME280;27078;46.428;6.256;2023-07-09T00:35:30;96879.97;;;21.22;96.57
41334;BME280;27078;46.428;6.256;2023-07-09T00:37:56;96878.31;;;21.21;97.26
41334;BME280;27078;46.428;6.256;2023-07-09T00:40:25;96884.50;;;21.22;96.63
41334;BME280;27078;46.428;6.256;2023-07-09T00:42:53;96885.72;;;21.19;97.37
41334;BME280;27078;46.428;6.256;2023-07-09T00:47:53;96886.22;;;21.08;98.46
41334;BME280;27078;46.428;6.256;2023-07-09T00:50:30;96888.25;;;21.06;98.72
41334;BME280;27078;46.428;6.256;2023-07-09T00:52:59;96890.31;;;21.04;99.14
41334;BME280;27078;46.428;6.256;2023-07-09T00:55:33;96892.56;;;21.00;100.00
41334;BME280;27078;46.428;6.256;2023-07-09T00:58:05;96891.94;;;20.98;100.00
41334;BME280;27078;46.428;6.256;2023-07-09T01:00:37;96890.19;;;20.90;100.00
41334;BME280;27078;46.428;6.256;2023-07-09T01:03:15;96890.94;;;20.84;100.00
41334;BME280;27078;46.428;6.256;2023-07-09T01:05:44;96901.63;;;20.78;100.00
41334;BME280;27078;46.428;6.256;2023-07-09T01:08:11;96898.59;;;20.66;100.00
41334;BME280;27078;46.428;6.256;2023-07-09T01:10:37;96893.59;;;20.63;100.00
41334;BME280;27078;46.428;6.256;2023-07-09T01:13:05;96885.44;;;20.56;100.00
41334;BME280;27078;46.428;6.256;2023-07-09T01:15:34;96896.75;;;20.51;100.00
41334;BME280;27078;46.428;6.256;2023-07-09T01:18:05;96901.25;;;20.51;100.00
41334;BME280;27078;46.428;6.256;2023-07-09T01:20:31;96895.47;;;20.47;100.00
41334;BME280;27078;46.428;6.256;2023-07-09T01:22:56;96901.56;;;20.41;100.00
41334;BME280;27078;46.428;6.256;2023-07-09T01:25:24;96904.25;;;20.41;100.00
41334;BME280;27078;46.428;6.256;2023-07-09T01:27:50;96910.09;;;20.45;100.00
41334;BME280;27078;46.428;6.256;2023-07-09T01:30:19;96911.91;;;20.44;100.00
41334;BME280;27078;46.428;6.256;2023-07-09T01:32:51;96909.22;;;20.44;100.00
41334;BME280;27078;46.428;6.256;2023-07-09T01:35:19;96909.63;;;20.41;100.00
41334;BME280;27078;46.428;6.256;2023-07-09T01:37:46;96910.91;;;20.45;100.00
41334;BME280;27078;46.428;6.256;2023-07-09T01:40:14;96906.84;;;20.49;100.00
41334;BME280;27078;46.428;6.256;2023-07-09T01:42:40;96906.44;;;20.52;100.00
41334;BME280;27078;46.428;6.256;2023-07-09T01:45:07;96907.28;;;20.53;100.00
41334;BME280;27078;46.428;6.256;2023-07-09T01:47:35;96913.28;;;20.55;100.00
41334;BME280;27078;46.428;6.256;2023-07-09T01:50:01;96911.28;;;20.42;100.00
41334;BME280;27078;46.428;6.256;2023-07-09T01:52:29;96903.16;;;20.21;100.00
41334;BME280;27078;46.428;6.256;2023-07-09T01:54:56;96909.91;;;20.17;100.00
41334;BME280;27078;46.428;6.256;2023-07-09T01:57:28;96912.41;;;20.18;100.00
41334;BME280;27078;46.428;6.256;2023-07-09T02:00:03;96913.16;;;20.12;100.00
41334;BME280;27078;46.428;6.256;2023-07-09T02:02:30;96908.59;;;20.12;100.00
41334;BME280;27078;46.428;6.256;2023-07-09T02:04:58;96909.06;;;20.16;100.00
41334;BME280;27078;46.428;6.256;2023-07-09T02:07:24;96909.56;;;20.20;100.00
41334;BME280;27078;46.428;6.256;2023-07-09T02:09:50;96905.84;;;20.21;100.00
41334;BME280;27078;46.428;6.256;2023-07-09T02:12:17;96900.03;;;20.17;100.00
41334;BME280;27078;46.428;6.256;2023-07-09T02:14:44;96899.19;;;20.17;100.00
41334;BME280;27078;46.428;6.256;2023-07-09T02:17:11;96909.91;;;20.17;100.00
41334;BME280;27078;46.428;6.256;2023-07-09T02:19:37;96912.78;;;20.15;100.00
41334;BME280;27078;46.428;6.256;2023-07-09T02:22:04;96903.72;;;20.16;100.00
41334;BME280;27078;46.428;6.256;2023-07-09T02:24:30;96900.22;;;20.16;100.00
41334;BME280;27078;46.428;6.256;2023-07-09T02:26:56;96908.25;;;20.16;100.00
41334;BME280;27078;46.428;6.256;2023-07-09T02:29:23;96900.03;;;20.17;100.00
41334;BME280;27078;46.428;6.256;2023-07-09T02:31:50;96897.97;;;20.19;100.00
41334;BME280;27078;46.428;6.256;2023-07-09T02:34:17;96898.81;;;20.20;100.00
41334;BME280;27078;46.428;6.256;2023-07-09T02:36:43;96901.94;;;20.23;100.00
41334;BME280;27078;46.428;6.256;2023-07-09T02:39:13;96898.72;;;20.28;100.00
41334;BME280;27078;46.428;6.256;2023-07-09T02:41:39;96900.19;;;20.30;100.00
41334;BME280;27078;46.428;6.256;2023-07-09T02:44:06;96905.09;;;20.27;100.00
41334;BME280;27078;46.428;6.256;2023-07-09T02:46:31;96900.13;;;20.24;100.00
41334;BME280;27078;46.428;6.256;2023-07-09T02:48:57;96899.19;;;20.17;100.00
41334;BME280;27078;46.428;6.256;2023-07-09T02:51:23;96908.59;;;20.12;100.00
41334;BME280;27078;46.428;6.256;2023-07-09T02:53:49;96906.50;;;20.08;100.00
41334;BME280;27078;46.428;6.256;2023-07-09T02:56:15;96907.88;;;20.04;100.00
41334;BME280;27078;46.428;6.256;2023-07-09T02:58:40;96909.72;;;20.03;100.00
41334;BME280;27078;46.428;6.256;2023-07-09T03:01:05;96912.41;;;20.03;100.00
41334;BME280;27078;46.428;6.256;2023-07-09T03:03:31;96914.72;;;20.06;100.00
41334;BME280;27078;46.428;6.256;2023-07-09T03:05:56;96912.97;;;20.13;100.00
41334;BME280;27078;46.428;6.256;2023-07-09T03:08:22;96919.25;;;20.21;100.00
41334;BME280;27078;46.428;6.256;2023-07-09T03:10:47;96914.91;;;20.20;100.00
41334;BME280;27078;46.428;6.256;2023-07-09T03:13:13;96912.31;;;20.26;100.00
41334;BME280;27078;46.428;6.256;2023-07-09T03:15:38;96910.47;;;20.27;100.00
41334;BME280;27078;46.428;6.256;2023-07-09T03:18:03;96912.13;;;20.28;100.00
41334;BME280;27078;46.428;6.256;2023-07-09T03:20:29;96912.50;;;20.25;100.00
41334;BME280;27078;46.428;6.256;2023-07-09T03:22:54;96921.56;;;20.24;100.00
41334;BME280;27078;46.428;6.256;2023-07-09T03:25:20;96915.34;;;20.23;100.00
41334;BME280;27078;46.428;6.256;2023-07-09T03:27:47;96917.03;;;20.24;100.00
41334;BME280;27078;46.428;6.256;2023-07-09T03:30:13;96913.31;;;20.25;100.00
41334;BME280;27078;46.428;6.256;2023-07-09T03:32:39;96914.16;;;20.26;100.00
41334;BME280;27078;46.428;6.256;2023-07-09T03:35:04;96917.13;;;20.31;100.00
41334;BME280;27078;46.428;6.256;2023-07-09T03:37:30;96913.03;;;20.35;100.00
41334;BME280;27078;46.428;6.256;2023-07-09T03:39:55;96924.31;;;20.45;100.00
41334;BME280;27078;46.428;6.256;2023-07-09T03:42:21;96923.66;;;20.43;100.00
41334;BME280;27078;46.428;6.256;2023-07-09T03:44:46;96925.31;;;20.44;100.00
41334;BME280;27078;46.428;6.256;2023-07-09T03:47:11;96927.34;;;20.42;100.00
41334;BME280;27078;46.428;6.256;2023-07-09T03:49:37;96930.44;;;20.39;100.00
41334;BME280;27078;46.428;6.256;2023-07-09T03:52:03;96942.94;;;20.32;100.00
41334;BME280;27078;46.428;6.256;2023-07-09T03:59:27;96951.16;;;20.30;100.00
41334;BME280;27078;46.428;6.256;2023-07-09T04:01:53;96954.56;;;20.24;100.00
41334;BME280;27078;46.428;6.256;2023-07-09T04:04:18;96959.47;;;20.21;100.00
41334;BME280;27078;46.428;6.256;2023-07-09T04:06:46;96955.69;;;20.15;100.00
41334;BME280;27078;46.428;6.256;2023-07-09T04:09:12;96953.91;;;20.07;100.00
41334;BME280;27078;46.428;6.256;2023-07-09T04:11:37;96958.97;;;19.87;100.00
41334;BME280;27078;46.428;6.256;2023-07-09T04:14:02;96958.97;;;19.87;100.00
41334;BME280;27078;46.428;6.256;2023-07-09T04:16:27;96962.19;;;19.83;100.00
41334;BME280;27078;46.428;6.256;2023-07-09T04:18:53;96956.66;;;19.84;100.00
41334;BME280;27078;46.428;6.256;2023-07-09T04:21:18;96955.19;;;19.82;100.00
41334;BME280;27078;46.428;6.256;2023-07-09T04:23:43;96961.19;;;19.84;100.00
41334;BME280;27078;46.428;6.256;2023-07-09T04:26:13;96949.44;;;19.85;100.00
41334;BME280;27078;46.428;6.256;2023-07-09T04:28:38;96949.75;;;19.90;100.00
41334;BME280;27078;46.428;6.256;2023-07-09T04:31:04;96950.00;;;19.95;100.00
41334;BME280;27078;46.428;6.256;2023-07-09T04:33:29;96949.66;;;19.98;100.00
41334;BME280;27078;46.428;6.256;2023-07-09T04:35:55;96945.69;;;20.09;100.00
41334;BME280;27078;46.428;6.256;2023-07-09T04:38:20;96947.81;;;20.13;100.00
41334;BME280;27078;46.428;6.256;2023-07-09T04:40:46;96943.38;;;20.21;100.00
41334;BME280;27078;46.428;6.256;2023-07-09T04:43:12;96944.97;;;20.30;100.00
41334;BME280;27078;46.428;6.256;2023-07-09T04:45:37;96946.69;;;20.38;100.00
41334;BME280;27078;46.428;6.256;2023-07-09T04:48:03;96946.78;;;20.44;100.00
41334;BME280;27078;46.428;6.256;2023-07-09T04:50:28;96946.13;;;20.42;100.00
41334;BME280;27078;46.428;6.256;2023-07-09T04:52:54;96947.44;;;20.46;100.00
41334;BME280;27078;46.428;6.256;2023-07-09T04:55:19;96940.50;;;20.52;100.00
41334;BME280;27078;46.428;6.256;2023-07-09T04:57:45;96942.72;;;20.63;100.00
41334;BME280;27078;46.428;6.256;2023-07-09T05:00:11;96938.34;;;20.77;100.00
41334;BME280;27078;46.428;6.256;2023-07-09T05:02:36;96937.50;;;20.91;100.00
41334;BME280;27078;46.428;6.256;2023-07-09T05:05:02;96934.56;;;21.08;100.00
41334;BME280;27078;46.428;6.256;2023-07-09T05:07:27;96933.66;;;21.22;100.00
41334;BME280;27078;46.428;6.256;2023-07-09T05:09:53;96937.06;;;21.31;100.00
41334;BME280;27078;46.428;6.256;2023-07-09T05:12:18;96932.03;;;21.43;100.00
41334;BME280;27078;46.428;6.256;2023-07-09T05:14:45;96930.88;;;21.52;100.00
41334;BME280;27078;46.428;6.256;2023-07-09T05:17:10;96936.75;;;21.62;100.00
41334;BME280;27078;46.428;6.256;2023-07-09T05:19:36;96932.00;;;21.64;100.00
41334;BME280;27078;46.428;6.256;2023-07-09T05:22:01;96935.94;;;21.62;100.00
41334;BME280;27078;46.428;6.256;2023-07-09T05:24:26;96935.94;;;21.62;100.00
41334;BME280;27078;46.428;6.256;2023-07-09T05:26:52;96941.03;;;21.57;100.00
41334;BME280;27078;46.428;6.256;2023-07-09T05:29:17;96942.53;;;21.59;100.00
41334;BME280;27078;46.428;6.256;2023-07-09T05:31:43;96946.72;;;21.68;100.00
41334;BME280;27078;46.428;6.256;2023-07-09T05:34:08;96944.78;;;21.84;100.00
41334;BME280;27078;46.428;6.256;2023-07-09T05:36:33;96944.88;;;21.97;100.00
41334;BME280;27078;46.428;6.256;2023-07-09T05:38:59;96942.03;;;22.05;100.00
41334;BME280;27078;46.428;6.256;2023-07-09T05:41:24;96941.88;;;22.13;100.00
41334;BME280;27078;46.428;6.256;2023-07-09T05:43:51;96941.91;;;22.20;100.00
41334;BME280;27078;46.428;6.256;2023-07-09T05:46:18;96946.81;;;22.38;100.00
41334;BME280;27078;46.428;6.256;2023-07-09T05:48:43;96937.75;;;22.46;100.00
41334;BME280;27078;46.428;6.256;2023-07-09T05:51:08;96944.44;;;22.56;100.00
41334;BME280;27078;46.428;6.256;2023-07-09T05:53:34;96944.06;;;22.73;100.00
41334;BME280;27078;46.428;6.256;2023-07-09T05:56:00;96941.84;;;22.83;100.00
41334;BME280;27078;46.428;6.256;2023-07-09T05:58:25;96940.00;;;22.90;100.00
41334;BME280;27078;46.428;6.256;2023-07-09T06:00:51;96944.59;;;22.96;100.00
41334;BME280;27078;46.428;6.256;2023-07-09T06:03:22;96947.34;;;23.16;100.00
41334;BME280;27078;46.428;6.256;2023-07-09T06:05:48;96947.09;;;23.05;100.00
41334;BME280;27078;46.428;6.256;2023-07-09T06:08:18;96944.66;;;23.10;100.00
41334;BME280;27078;46.428;6.256;2023-07-09T06:10:53;96943.84;;;23.16;100.00
41334;BME280;27078;46.428;6.256;2023-07-09T06:13:19;96946.75;;;23.21;100.00
41334;BME280;27078;46.428;6.256;2023-07-09T06:15:47;96944.91;;;23.28;100.00
41334;BME280;27078;46.428;6.256;2023-07-09T06:18:13;96949.25;;;23.36;100.00
41334;BME280;27078;46.428;6.256;2023-07-09T06:20:38;96945.53;;;23.44;100.00
41334;BME280;27078;46.428;6.256;2023-07-09T06:23:04;96949.25;;;23.43;100.00
41334;BME280;27078;46.428;6.256;2023-07-09T06:25:29;96946.56;;;23.43;100.00
41334;BME280;27078;46.428;6.256;2023-07-09T06:27:54;96949.25;;;23.43;100.00
41334;BME280;27078;46.428;6.256;2023-07-09T06:30:20;96953.19;;;23.53;100.00
41334;BME280;27078;46.428;6.256;2023-07-09T06:32:45;96944.28;;;23.40;100.00
41334;BME280;27078;46.428;6.256;2023-07-09T06:35:10;96943.75;;;22.96;100.00
41334;BME280;27078;46.428;6.256;2023-07-09T06:37:36;96939.25;;;23.10;100.00
41334;BME280;27078;46.428;6.256;2023-07-09T06:40:02;96934.72;;;23.30;100.00
41334;BME280;27078;46.428;6.256;2023-07-09T06:42:28;96950.09;;;23.50;100.00
41334;BME280;27078;46.428;6.256;2023-07-09T06:44:53;96948.88;;;23.59;100.00
41334;BME280;27078;46.428;6.256;2023-07-09T06:47:18;96953.84;;;23.69;100.00
41334;BME280;27078;46.428;6.256;2023-07-09T06:49:44;96956.53;;;23.75;100.00
41334;BME280;27078;46.428;6.256;2023-07-09T06:52:09;96962.38;;;23.92;100.00
41334;BME280;27078;46.428;6.256;2023-07-09T06:54:35;96952.63;;;24.11;100.00
41334;BME280;27078;46.428;6.256;2023-07-09T06:57:00;96951.34;;;24.21;100.00
41334;BME280;27078;46.428;6.256;2023-07-09T06:59:25;96959.66;;;24.26;100.00
41334;BME280;27078;46.428;6.256;2023-07-09T07:01:51;96957.94;;;24.38;99.27
41334;BME280;27078;46.428;6.256;2023-07-09T07:04:16;96964.59;;;24.49;98.61
41334;BME280;27078;46.428;6.256;2023-07-09T07:06:41;96959.63;;;24.39;100.00
41334;BME280;27078;46.428;6.256;2023-07-09T07:09:07;96959.78;;;24.44;99.37
41334;BME280;27078;46.428;6.256;2023-07-09T07:11:32;96964.78;;;24.47;100.00
41334;BME280;27078;46.428;6.256;2023-07-09T07:13:57;96969.13;;;24.62;97.67
41334;BME280;27078;46.428;6.256;2023-07-09T07:21:33;96962.97;;;24.93;89.97
41334;BME280;27078;46.428;6.256;2023-07-09T07:23:59;96967.53;;;24.99;89.59
41334;BME280;27078;46.428;6.256;2023-07-09T07:26:24;96966.47;;;25.07;88.93
41334;BME280;27078;46.428;6.256;2023-07-09T07:28:49;96961.41;;;25.17;87.25
41334;BME280;27078;46.428;6.256;2023-07-09T07:31:15;96958.16;;;25.02;87.36
41334;BME280;27078;46.428;6.256;2023-07-09T07:33:41;96963.06;;;25.18;85.49
41334;BME280;27078;46.428;6.256;2023-07-09T07:36:07;96962.19;;;25.31;85.94
41334;BME280;27078;46.428;6.256;2023-07-09T07:38:32;96956.53;;;25.39;81.87
41334;BME280;27078;46.428;6.256;2023-07-09T07:40:58;96959.63;;;25.43;80.00
41334;BME280;27078;46.428;6.256;2023-07-09T07:43:23;96959.63;;;25.43;81.75
41334;BME280;27078;46.428;6.256;2023-07-09T07:45:49;96951.06;;;25.46;79.33
41334;BME280;27078;46.428;6.256;2023-07-09T07:48:14;96952.09;;;25.51;76.13
41334;BME280;27078;46.428;6.256;2023-07-09T07:50:39;96949.22;;;25.39;80.40
41334;BME280;27078;46.428;6.256;2023-07-09T07:53:06;96949.78;;;25.55;81.07
41334;BME280;27078;46.428;6.256;2023-07-09T07:55:33;96944.69;;;25.65;77.99
41334;BME280;27078;46.428;6.256;2023-07-09T07:57:58;96950.63;;;25.80;78.87
41334;BME280;27078;46.428;6.256;2023-07-09T08:00:25;96945.13;;;25.94;75.59
41334;BME280;27078;46.428;6.256;2023-07-09T08:02:50;96937.94;;;26.06;74.68
41334;BME280;27078;46.428;6.256;2023-07-09T08:05:16;96931.09;;;26.22;73.21
41334;BME280;27078;46.428;6.256;2023-07-09T08:07:41;96940.94;;;26.35;71.88
41334;BME280;27078;46.428;6.256;2023-07-09T08:10:07;96936.75;;;26.39;70.59
41334;BME280;27078;46.428;6.256;2023-07-09T08:12:33;96935.53;;;26.35;68.19
41334;BME280;27078;46.428;6.256;2023-07-09T08:14:58;96933.81;;;26.40;69.74
41334;BME280;27078;46.428;6.256;2023-07-09T08:17:23;96944.13;;;26.32;67.54
41334;BME280;27078;46.428;6.256;2023-07-09T08:19:53;96947.56;;;26.39;66.73
41334;BME280;27078;46.428;6.256;2023-07-09T08:22:19;96940.34;;;26.33;65.55
41334;BME280;27078;46.428;6.256;2023-07-09T08:24:47;96950.56;;;26.31;67.71
41334;BME280;27078;46.428;6.256;2023-07-09T08:27:12;96946.75;;;26.38;68.03
41334;BME280;27078;46.428;6.256;2023-07-09T08:29:37;96955.25;;;26.42;68.39
41334;BME280;27078;46.428;6.256;2023-07-09T08:32:06;96942.47;;;26.49;67.06
41334;BME280;27078;46.428;6.256;2023-07-09T08:34:31;96946.53;;;26.40;70.00
41334;BME280;27078;46.428;6.256;2023-07-09T08:36:57;96949.56;;;26.50;67.82
41334;BME280;27078;46.428;6.256;2023-07-09T08:39:22;96945.34;;;26.54;67.85
41334;BME280;27078;46.428;6.256;2023-07-09T08:50:22;96941.34;;;26.94;64.78
41334;BME280;27078;46.428;6.256;2023-07-09T08:52:50;96939.72;;;27.05;63.12
41334;BME280;27078;46.428;6.256;2023-07-09T08:55:21;96933.69;;;26.91;63.43
41334;BME280;27078;46.428;6.256;2023-07-09T08:57:52;96932.69;;;27.04;66.50
41334;BME280;27078;46.428;6.256;2023-07-09T09:00:29;96937.31;;;27.15;65.88
41334;BME280;27078;46.428;6.256;2023-07-09T09:03:01;96927.44;;;27.20;65.76
41334;BME280;27078;46.428;6.256;2023-07-09T09:05:30;96933.56;;;27.16;64.44
41334;BME280;27078;46.428;6.256;2023-07-09T09:08:03;96935.88;;;27.12;65.37
41334;BME280;27078;46.428;6.256;2023-07-09T09:10:39;96929.66;;;27.12;65.16
41334;BME280;27078;46.428;6.256;2023-07-09T09:13:11;96918.63;;;27.25;64.05
41334;BME280;27078;46.428;6.256;2023-07-09T09:15:44;96921.63;;;27.35;62.92
41334;BME280;27078;46.428;6.256;2023-07-09T09:20:48;96916.34;;;27.64;62.85
41334;BME280;27078;46.428;6.256;2023-07-09T09:23:15;96915.03;;;27.43;62.24
41334;BME280;27078;46.428;6.256;2023-07-09T09:25:49;96907.88;;;27.60;61.71
41334;BME280;27078;46.428;6.256;2023-07-09T09:28:15;96910.59;;;27.72;61.40
41334;BME280;27078;46.428;6.256;2023-07-09T09:30:40;96917.81;;;27.78;58.34
41334;BME280;27078;46.428;6.256;2023-07-09T09:33:10;96910.16;;;27.87;61.23
41334;BME280;27078;46.428;6.256;2023-07-09T09:35:42;96906.97;;;28.02;60.24
41334;BME280;27078;46.428;6.256;2023-07-09T09:38:17;96915.13;;;28.14;59.27
41334;BME280;27078;46.428;6.256;2023-07-09T09:40:43;96909.34;;;28.22;60.92
41334;BME280;27078;46.428;6.256;2023-07-09T09:43:15;96910.03;;;28.29;59.63
41334;BME280;27078;46.428;6.256;2023-07-09T09:45:43;96901.91;;;28.29;59.40
41334;BME280;27078;46.428;6.256;2023-07-09T09:48:19;96907.91;;;28.43;59.93
41334;BME280;27078;46.428;6.256;2023-07-09T09:50:46;96907.88;;;28.67;58.07
41334;BME280;27078;46.428;6.256;2023-07-09T09:53:22;96905.75;;;28.69;57.16
41334;BME280;27078;46.428;6.256;2023-07-09T09:55:51;96900.31;;;28.69;56.14
41334;BME280;27078;46.428;6.256;2023-07-09T09:58:18;96900.19;;;28.63;57.07
41334;BME280;27078;46.428;6.256;2023-07-09T10:00:56;96900.09;;;28.58;57.72
41334;BME280;27078;46.428;6.256;2023-07-09T10:03:36;96894.50;;;28.77;58.27
41334;BME280;27078;46.428;6.256;2023-07-09T10:06:15;96894.00;;;28.80;57.47
41334;BME280;27078;46.428;6.256;2023-07-09T10:11:28;96899.94;;;28.77;56.46
41334;BME280;27078;46.428;6.256;2023-07-09T10:14:00;96894.13;;;28.85;56.58
41334;BME280;27078;46.428;6.256;2023-07-09T10:16:34;96895.56;;;29.05;57.54
41334;BME280;27078;46.428;6.256;2023-07-09T10:19:24;96890.53;;;28.96;55.02
41334;BME280;27078;46.428;6.256;2023-07-09T10:21:52;96898.50;;;28.74;56.14
41334;BME280;27078;46.428;6.256;2023-07-09T10:27:25;96897.59;;;28.69;56.21
41334;BME280;27078;46.428;6.256;2023-07-09T10:30:13;96903.31;;;28.84;55.89
41334;BME280;27078;46.428;6.256;2023-07-09T10:35:28;96891.91;;;29.11;57.79
41334;BME280;27078;46.428;6.256;2023-07-09T10:38:37;96896.84;;;29.42;55.37
41334;BME280;27078;46.428;6.256;2023-07-09T10:41:09;96899.06;;;29.62;55.23
41334;BME280;27078;46.428;6.256;2023-07-09T10:43:43;96893.66;;;29.79;54.78
41334;BME280;27078;46.428;6.256;2023-07-09T10:46:17;96896.47;;;29.85;53.98
41334;BME280;27078;46.428;6.256;2023-07-09T10:48:47;96892.81;;;29.96;55.39
41334;BME280;27078;46.428;6.256;2023-07-09T10:51:36;96883.63;;;30.19;54.36
41334;BME280;27078;46.428;6.256;2023-07-09T10:56:55;96894.16;;;30.54;54.96
41334;BME280;27078;46.428;6.256;2023-07-09T10:59:28;96886.97;;;30.43;54.17
41334;BME280;27078;46.428;6.256;2023-07-09T11:04:55;96890.69;;;30.37;52.35
41334;BME280;27078;46.428;6.256;2023-07-09T11:07:32;96889.47;;;30.28;53.14
41334;BME280;27078;46.428;6.256;2023-07-09T11:10:01;96886.06;;;30.20;53.15
41334;BME280;27078;46.428;6.256;2023-07-09T11:15:21;96880.63;;;30.59;52.74
41334;BME280;27078;46.428;6.256;2023-07-09T11:17:45;96883.66;;;30.85;52.34
41334;BME280;27078;46.428;6.256;2023-07-09T11:20:22;96886.66;;;31.06;51.02
41334;BME280;27078;46.428;6.256;2023-07-09T11:22:54;96878.03;;;31.19;51.34
41334;BME280;27078;46.428;6.256;2023-07-09T11:25:59;96877.16;;;31.40;49.92
41334;BME280;27078;46.428;6.256;2023-07-09T11:28:14;96882.84;;;31.66;50.02
41334;BME280;27078;46.428;6.256;2023-07-09T11:30:51;96885.19;;;31.84;45.70
41334;BME280;27078;46.428;6.256;2023-07-09T11:33:46;96873.66;;;31.77;49.25
41334;BME280;27078;46.428;6.256;2023-07-09T11:36:23;96874.44;;;32.05;47.70
41334;BME280;27078;46.428;6.256;2023-07-09T11:38:49;96866.88;;;32.22;46.26
41334;BME280;27078;46.428;6.256;2023-07-09T11:41:33;96864.34;;;32.63;45.45
41334;BME280;27078;46.428;6.256;2023-07-09T11:46:44;96869.31;;;32.67;43.34
41334;BME280;27078;46.428;6.256;2023-07-09T11:49:12;96860.06;;;32.88;43.88
41334;BME280;27078;46.428;6.256;2023-07-09T11:51:44;96865.56;;;33.03;42.19
41334;BME280;27078;46.428;6.256;2023-07-09T11:54:13;96857.91;;;32.90;44.15
41334;BME280;27078;46.428;6.256;2023-07-09T11:56:39;96862.34;;;33.27;42.60
41334;BME280;27078;46.428;6.256;2023-07-09T11:59:05;96848.69;;;33.42;41.01
41334;BME280;27078;46.428;6.256;2023-07-09T12:01:42;96852.56;;;33.72;41.75
41334;BME280;27078;46.428;6.256;2023-07-09T12:04:16;96839.38;;;33.95;40.35
41334;BME280;27078;46.428;6.256;2023-07-09T12:06:42;96845.97;;;33.83;39.79
41334;BME280;27078;46.428;6.256;2023-07-09T12:09:20;96842.94;;;33.90;39.85
41334;BME280;27078;46.428;6.256;2023-07-09T12:11:48;96848.44;;;33.70;40.17
41334;BME280;27078;46.428;6.256;2023-07-09T12:14:19;96843.78;;;33.85;40.50
41334;BME280;27078;46.428;6.256;2023-07-09T12:16:52;96835.81;;;33.94;39.63
41334;BME280;27078;46.428;6.256;2023-07-09T12:19:22;96831.69;;;33.97;40.92
41334;BME280;27078;46.428;6.256;2023-07-09T12:21:52;96834.16;;;34.14;40.58
41334;BME280;27078;46.428;6.256;2023-07-09T12:24:29;96830.88;;;34.17;39.74
41334;BME280;27078;46.428;6.256;2023-07-09T12:27:02;96832.16;;;34.35;39.42
41334;BME280;27078;46.428;6.256;2023-07-09T12:29:29;96827.75;;;34.39;38.93
41334;BME280;27078;46.428;6.256;2023-07-09T12:31:58;96820.69;;;34.28;37.51
41334;BME280;27078;46.428;6.256;2023-07-09T12:34:25;96827.28;;;34.21;38.50
41334;BME280;27078;46.428;6.256;2023-07-09T12:36:52;96826.16;;;34.28;38.13
41334;BME280;27078;46.428;6.256;2023-07-09T12:39:27;96817.94;;;34.28;37.75
41334;BME280;27078;46.428;6.256;2023-07-09T12:41:55;96819.34;;;34.04;36.38
41334;BME280;27078;46.428;6.256;2023-07-09T12:44:23;96811.44;;;33.82;37.25
41334;BME280;27078;46.428;6.256;2023-07-09T12:46:51;96813.66;;;33.85;37.75
41334;BME280;27078;46.428;6.256;2023-07-09T12:49:29;96807.84;;;33.97;36.19
41334;BME280;27078;46.428;6.256;2023-07-09T12:51:58;96808.41;;;34.04;36.67
41334;BME280;27078;46.428;6.256;2023-07-09T12:54:28;96805.91;;;34.18;37.62
41334;BME280;27078;46.428;6.256;2023-07-09T12:56:54;96796.59;;;34.19;36.03
41334;BME280;27078;46.428;6.256;2023-07-09T12:59:25;96794.03;;;34.49;38.50
41334;BME280;27078;46.428;6.256;2023-07-09T13:02:01;96800.06;;;34.45;36.10
41334;BME280;27078;46.428;6.256;2023-07-09T13:04:30;96795.31;;;34.61;36.72
41334;BME280;27078;46.428;6.256;2023-07-09T13:06:55;96797.91;;;34.92;37.98
41334;BME280;27078;46.428;6.256;2023-07-09T13:09:25;96788.75;;;35.07;35.70
41334;BME280;27078;46.428;6.256;2023-07-09T13:11:51;96795.59;;;35.15;36.79
41334;BME280;27078;46.428;6.256;2023-07-09T13:14:34;96784.47;;;35.35;35.60
41334;BME280;27078;46.428;6.256;2023-07-09T13:17:07;96785.47;;;35.44;34.32
41334;BME280;27078;46.428;6.256;2023-07-09T13:19:34;96781.97;;;34.99;33.42
41334;BME280;27078;46.428;6.256;2023-07-09T13:22:00;96773.31;;;35.21;33.50
41334;BME280;27078;46.428;6.256;2023-07-09T13:24:28;96765.88;;;35.27;32.13
41334;BME280;27078;46.428;6.256;2023-07-09T13:26:54;96769.63;;;35.36;31.79
41334;BME280;27078;46.428;6.256;2023-07-09T13:29:20;96758.09;;;35.34;32.53
41334;BME280;27078;46.428;6.256;2023-07-09T13:31:47;96767.88;;;35.11;32.13
41334;BME280;27078;46.428;6.256;2023-07-09T13:34:23;96757.44;;;35.47;32.67
41334;BME280;27078;46.428;6.256;2023-07-09T13:36:50;96754.56;;;35.63;31.47
41334;BME280;27078;46.428;6.256;2023-07-09T13:39:16;96756.81;;;35.56;29.92
41334;BME280;27078;46.428;6.256;2023-07-09T13:41:43;96759.16;;;35.38;32.29
41334;BME280;27078;46.428;6.256;2023-07-09T13:44:14;96753.97;;;35.37;33.82